Weather History for PASH - June, 2013

Change the Weather History Date:

Wednesday, June 5, 2013

  Actual Average Record
Temperature  
Mean Temperature 32 °F -  
Max Temperature 39 °F 36 °F 44 °F (2003)
Min Temperature 24 °F 28 °F 24 °F (2005)
Degree Days  
Heating Degree Days 34    
Moisture  
Dew Point 30 °F    
Average Humidity 93    
Maximum Humidity 100    
Minimum Humidity 86    
Precipitation  
Precipitation 0.09 in - - ()
Sea Level Pressure  
Sea Level Pressure 29.77 in    
Wind  
Wind Speed 5 mph (South)    
Max Wind Speed 10 mph    
Max Gust Speed -    
Visibility 8 miles    
Events      
Averages and records for this station are not official NWS values.
T = Trace of Precipitation, MM = Missing Value Source: NWS Daily Summary

Daily Weather History Graph

Daily Weather History Graph

Search for Another Location

Airport or City:

Trip Planner

Search our weather history database for the weather conditions in past years. The results will help you decide how hot, cold, wet, or windy it might be!

Date:

Astronomy

Jun. 05, 2013 Rise Set
Actual Time 3:43 AM AKDT 2:29 AM AKDT
Civil Twilight Sun does not rise Sun does not rise
Nautical Twilight Sun does not rise Sun does not rise
Astronomical Twilight Sun does not rise Sun does not rise
Moon 4:03 AM AKDT 10:12 PM AKDT
Length of Visible Light 24h 00m
Length of Day
22h 46m
Waning Crescent, 7% of the Moon is Illuminated
Jun 5
Waning Crescent
Jun 8
New
Jun 16
First Quarter
Jun 23
Full
Jun 29
Last Quarter

Hourly Weather History & Observations

Time (AKDT) Temp. Windchill Dew Point Humidity Pressure Visibility Wind Dir Wind Speed Gust Speed Precip Events Conditions
12:16 AM 28.4 °F 22.2 °F 26.6 °F 93% 29.77 in 10.0 mi West 5.8 mph - N/A   Overcast
12:36 AM 26.6 °F 20.0 °F 24.8 °F 93% 29.77 in 10.0 mi West 5.8 mph - N/A   Overcast
12:56 AM 26.6 °F 20.0 °F 24.8 °F 93% 29.77 in 10.0 mi WNW 5.8 mph - N/A   Overcast
1:16 AM 26.6 °F 19.1 °F 24.8 °F 93% 29.77 in 10.0 mi WNW 6.9 mph - N/A   Overcast
1:36 AM 26.6 °F 20.0 °F 24.8 °F 93% 29.77 in 10.0 mi West 5.8 mph - N/A   Overcast
1:56 AM 26.6 °F 20.0 °F 24.8 °F 93% 29.77 in 10.0 mi West 5.8 mph - N/A   Overcast
2:16 AM 26.6 °F 20.0 °F 24.8 °F 93% 29.76 in 10.0 mi West 5.8 mph - N/A   Overcast
2:36 AM 26.6 °F 21.2 °F 24.8 °F 93% 29.77 in 10.0 mi West 4.6 mph - N/A   Overcast
2:56 AM 26.6 °F 21.2 °F 24.8 °F 93% 29.77 in 8.0 mi West 4.6 mph - N/A   Overcast
3:16 AM 26.6 °F 21.2 °F 24.8 °F 93% 29.77 in 3.0 mi West 4.6 mph - N/A   Overcast
3:36 AM 26.6 °F 21.2 °F 24.8 °F 93% 29.77 in 1.0 mi WSW 4.6 mph - N/A   Overcast
3:56 AM 26.6 °F 22.6 °F 24.8 °F 93% 29.77 in 0.5 mi West 3.5 mph - N/A   Overcast
4:16 AM 26.6 °F 22.6 °F 23.0 °F 86% 29.77 in 0.5 mi West 3.5 mph - N/A   Overcast
4:36 AM 24.8 °F - 24.8 °F 100% 29.76 in 0.2 mi Calm Calm - N/A   Overcast
4:56 AM 24.8 °F - 24.8 °F 100% 29.76 in 0.2 mi Calm Calm - N/A   Overcast
5:16 AM 24.8 °F - 23.0 °F 93% 29.76 in 0.2 mi Calm Calm - N/A   Overcast
5:36 AM 24.8 °F - 24.8 °F 100% 29.76 in 0.5 mi Calm Calm - N/A   Overcast
5:56 AM 24.8 °F 20.5 °F 24.8 °F 100% 29.76 in 1.0 mi SSW 3.5 mph - N/A   Overcast
6:16 AM 26.6 °F 22.6 °F 24.8 °F 93% 29.75 in 0.2 mi SSW 3.5 mph - N/A   Overcast
6:36 AM 26.6 °F 22.6 °F 24.8 °F 93% 29.75 in 0.5 mi South 3.5 mph - N/A   Overcast
6:56 AM 26.6 °F 22.6 °F 24.8 °F 93% 29.76 in 0.5 mi SSW 3.5 mph - N/A   Overcast
7:16 AM 26.6 °F 22.6 °F 26.6 °F 100% 29.76 in 0.8 mi SSW 3.5 mph - N/A   Overcast
7:36 AM 26.6 °F - 24.8 °F 93% 29.76 in 9.0 mi Calm Calm - N/A   Overcast
7:56 AM 26.6 °F - 26.6 °F 100% 29.76 in 10.0 mi Calm Calm - N/A   Overcast
8:16 AM 26.6 °F 22.6 °F 26.6 °F 100% 29.76 in 10.0 mi South 3.5 mph - N/A   Overcast
8:36 AM 26.6 °F - 26.6 °F 100% 29.76 in 10.0 mi Calm Calm - N/A   Overcast
8:56 AM 28.4 °F 24.6 °F 26.6 °F 93% 29.76 in 10.0 mi SSE 3.5 mph - N/A   Mostly Cloudy
9:16 AM 26.6 °F 22.6 °F 26.6 °F 100% 29.76 in 10.0 mi SSE 3.5 mph - N/A   Overcast
9:36 AM 28.4 °F 24.6 °F 26.6 °F 93% 29.77 in 10.0 mi SSE 3.5 mph - N/A   Overcast
9:56 AM 28.4 °F 23.3 °F 26.6 °F 93% 29.77 in 10.0 mi SE 4.6 mph - N/A   Overcast
10:16 AM 28.4 °F 23.3 °F 26.6 °F 93% 29.77 in 10.0 mi SE 4.6 mph - N/A   Overcast
10:36 AM 30.2 °F 24.3 °F 28.4 °F 93% 29.76 in 10.0 mi ESE 5.8 mph - N/A   Overcast
10:56 AM 30.2 °F 23.4 °F 28.4 °F 93% 29.76 in 10.0 mi ESE 6.9 mph - N/A   Overcast
11:16 AM 30.2 °F 24.3 °F 28.4 °F 93% 29.76 in 10.0 mi SE 5.8 mph - N/A   Overcast
11:36 AM 30.2 °F 24.3 °F 28.4 °F 93% 29.76 in 10.0 mi SE 5.8 mph - N/A   Overcast
11:56 AM 32.0 °F 27.5 °F 30.2 °F 93% 29.76 in 10.0 mi SE 4.6 mph - N/A   Overcast
12:16 PM 33.8 °F 28.6 °F 30.2 °F 87% 29.76 in 10.0 mi ESE 5.8 mph - N/A   Overcast
12:36 PM 33.8 °F 29.6 °F 30.2 °F 87% 29.77 in 10.0 mi ESE 4.6 mph - N/A   Overcast
12:56 PM 33.8 °F 28.6 °F 30.2 °F 87% 29.77 in 10.0 mi ESE 5.8 mph - N/A   Overcast
1:16 PM 33.8 °F 27.7 °F 30.2 °F 87% 29.77 in 10.0 mi ESE 6.9 mph - N/A   Overcast
1:36 PM 35.6 °F 29.9 °F 32.0 °F 87% 29.77 in 10.0 mi ESE 6.9 mph - N/A   Overcast
1:56 PM 35.6 °F 29.2 °F 33.8 °F 93% 29.78 in 10.0 mi ESE 8.1 mph - N/A   Overcast
2:16 PM 35.6 °F 29.2 °F 33.8 °F 93% 29.78 in 10.0 mi ESE 8.1 mph - N/A   Overcast
2:36 PM 35.6 °F 30.7 °F 33.8 °F 93% 29.78 in 10.0 mi SE 5.8 mph - N/A   Overcast
2:56 PM 37.4 °F 32.1 °F 33.8 °F 87% 29.78 in 10.0 mi SSE 6.9 mph - N/A   Overcast
3:16 PM 37.4 °F 33.8 °F 35.6 °F 93% 29.78 in 9.0 mi SE 4.6 mph - N/A   Overcast
3:36 PM 35.6 °F 30.7 °F 35.6 °F 100% 29.78 in 5.0 mi SSE 5.8 mph - 0.01 in   Overcast
3:56 PM 37.4 °F 31.4 °F 33.8 °F 87% 29.78 in 2.0 mi South 8.1 mph - 0.03 in   Overcast
4:16 PM 37.4 °F 31.4 °F 35.6 °F 93% 29.78 in 9.0 mi SSE 8.1 mph - 0.01 in   Overcast
4:36 PM 37.4 °F 34.9 °F 35.6 °F 93% 29.78 in 8.0 mi South 3.5 mph - 0.02 in   Overcast
4:56 PM 37.4 °F 32.8 °F 35.6 °F 93% 29.78 in 10.0 mi South 5.8 mph - 0.03 in   Overcast
5:16 PM 37.4 °F 32.1 °F 35.6 °F 93% 29.78 in 10.0 mi South 6.9 mph - 0.01 in   Overcast
5:36 PM 37.4 °F 32.1 °F 35.6 °F 93% 29.79 in 10.0 mi South 6.9 mph - 0.01 in   Overcast
5:56 PM 37.4 °F 31.4 °F 35.6 °F 93% 29.79 in 10.0 mi South 8.1 mph - 0.02 in   Overcast
6:16 PM 37.4 °F 32.1 °F 35.6 °F 93% 29.79 in 10.0 mi South 6.9 mph - N/A   Overcast
6:36 PM 37.4 °F 30.8 °F 35.6 °F 93% 29.79 in 10.0 mi South 9.2 mph - 0.01 in   Overcast
6:56 PM 37.4 °F 32.1 °F 35.6 °F 93% 29.79 in 10.0 mi South 6.9 mph - 0.01 in   Overcast
7:16 PM 39.2 °F 33.6 °F 37.4 °F 93% 29.79 in 10.0 mi SSW 8.1 mph - N/A   Overcast
7:36 PM 39.2 °F 33.6 °F 35.6 °F 87% 29.79 in 10.0 mi South 8.1 mph - N/A   Mostly Cloudy
7:56 PM 39.2 °F 32.5 °F 37.4 °F 93% 29.79 in 10.0 mi SSW 10.4 mph - N/A   Overcast
8:16 PM 39.2 °F 33.6 °F 37.4 °F 93% 29.79 in 10.0 mi South 8.1 mph - N/A   Overcast
8:36 PM 37.4 °F 30.3 °F 35.6 °F 93% 29.79 in 10.0 mi South 10.4 mph - N/A   Overcast
8:56 PM 37.4 °F 30.8 °F 35.6 °F 93% 29.79 in 10.0 mi South 9.2 mph - N/A   Overcast
9:16 PM 37.4 °F 30.3 °F 35.6 °F 93% 29.79 in 10.0 mi South 10.4 mph - N/A   Overcast
9:36 PM 37.4 °F 31.4 °F 35.6 °F 93% 29.79 in 10.0 mi South 8.1 mph - N/A   Overcast
9:56 PM 37.4 °F 30.8 °F 33.8 °F 87% 29.79 in 10.0 mi South 9.2 mph - N/A   Overcast
10:16 PM 37.4 °F 31.4 °F 35.6 °F 93% 29.80 in 10.0 mi South 8.1 mph - N/A   Overcast
10:36 PM 37.4 °F 31.4 °F 33.8 °F 87% 29.79 in 10.0 mi South 8.1 mph - N/A   Overcast
10:56 PM 37.4 °F 30.8 °F 33.8 °F 87% 29.80 in 10.0 mi South 9.2 mph - N/A   Overcast
11:16 PM 37.4 °F 30.8 °F 35.6 °F 93% 29.80 in 10.0 mi South 9.2 mph - N/A   Overcast
11:36 PM 37.4 °F 33.8 °F 33.8 °F 87% 29.81 in 10.0 mi South 4.6 mph - N/A   Overcast
11:56 PM 35.6 °F 29.9 °F 33.8 °F 93% 29.81 in 10.0 mi South 6.9 mph - N/A   Overcast